sensor_id;sensor_type;location;lat;lon;timestamp;P1;durP1;ratioP1;P2;durP2;ratioP2
68216;SDS011;55037;52.354;4.992;2023-04-06T00:01:07;6.05;;;4.68;;
68216;SDS011;55037;52.354;4.992;2023-04-06T00:03:35;10.80;;;6.57;;
68216;SDS011;55037;52.354;4.992;2023-04-06T00:06:03;12.90;;;6.72;;
68216;SDS011;55037;52.354;4.992;2023-04-06T00:08:30;8.20;;;4.88;;
68216;SDS011;55037;52.354;4.992;2023-04-06T00:10:57;14.73;;;7.55;;
68216;SDS011;55037;52.354;4.992;2023-04-06T00:13:24;17.15;;;7.63;;
68216;SDS011;55037;52.354;4.992;2023-04-06T00:15:52;9.77;;;5.00;;
68216;SDS011;55037;52.354;4.992;2023-04-06T00:18:19;16.67;;;6.57;;
68216;SDS011;55037;52.354;4.992;2023-04-06T00:20:47;8.10;;;4.63;;
68216;SDS011;55037;52.354;4.992;2023-04-06T00:23:14;11.35;;;5.70;;
68216;SDS011;55037;52.354;4.992;2023-04-06T00:25:41;11.68;;;5.50;;
68216;SDS011;55037;52.354;4.992;2023-04-06T00:28:09;7.30;;;3.73;;
68216;SDS011;55037;52.354;4.992;2023-04-06T00:30:36;6.97;;;4.60;;
68216;SDS011;55037;52.354;4.992;2023-04-06T00:33:03;9.30;;;5.13;;
68216;SDS011;55037;52.354;4.992;2023-04-06T00:35:31;7.75;;;4.57;;
68216;SDS011;55037;52.354;4.992;2023-04-06T00:37:58;9.25;;;4.00;;
68216;SDS011;55037;52.354;4.992;2023-04-06T00:40:26;10.13;;;5.27;;
68216;SDS011;55037;52.354;4.992;2023-04-06T00:42:55;10.82;;;5.60;;
68216;SDS011;55037;52.354;4.992;2023-04-06T00:45:22;10.27;;;6.03;;
68216;SDS011;55037;52.354;4.992;2023-04-06T00:47:49;13.90;;;5.32;;
68216;SDS011;55037;52.354;4.992;2023-04-06T00:50:17;10.07;;;4.97;;
68216;SDS011;55037;52.354;4.992;2023-04-06T00:52:44;12.43;;;6.03;;
68216;SDS011;55037;52.354;4.992;2023-04-06T00:55:11;10.57;;;5.10;;
68216;SDS011;55037;52.354;4.992;2023-04-06T00:57:41;10.80;;;4.95;;
68216;SDS011;55037;52.354;4.992;2023-04-06T01:00:09;7.78;;;4.55;;
68216;SDS011;55037;52.354;4.992;2023-04-06T01:02:39;10.25;;;6.25;;
68216;SDS011;55037;52.354;4.992;2023-04-06T01:05:08;9.43;;;5.10;;
68216;SDS011;55037;52.354;4.992;2023-04-06T01:07:46;9.57;;;5.65;;
68216;SDS011;55037;52.354;4.992;2023-04-06T01:10:27;9.23;;;4.72;;
68216;SDS011;55037;52.354;4.992;2023-04-06T01:13:14;5.50;;;3.25;;
68216;SDS011;55037;52.354;4.992;2023-04-06T01:15:50;6.50;;;4.35;;
68216;SDS011;55037;52.354;4.992;2023-04-06T01:18:27;10.27;;;4.67;;
68216;SDS011;55037;52.354;4.992;2023-04-06T01:21:09;8.25;;;4.55;;
68216;SDS011;55037;52.354;4.992;2023-04-06T01:23:54;11.45;;;5.68;;
68216;SDS011;55037;52.354;4.992;2023-04-06T01:26:28;6.53;;;3.70;;
68216;SDS011;55037;52.354;4.992;2023-04-06T01:28:58;8.13;;;3.20;;
68216;SDS011;55037;52.354;4.992;2023-04-06T01:31:28;10.90;;;5.37;;
68216;SDS011;55037;52.354;4.992;2023-04-06T01:33:55;8.38;;;3.88;;
68216;SDS011;55037;52.354;4.992;2023-04-06T01:36:24;9.02;;;5.22;;
68216;SDS011;55037;52.354;4.992;2023-04-06T01:39:00;6.00;;;3.50;;
68216;SDS011;55037;52.354;4.992;2023-04-06T01:41:33;10.05;;;4.97;;
68216;SDS011;55037;52.354;4.992;2023-04-06T01:44:01;9.40;;;5.20;;
68216;SDS011;55037;52.354;4.992;2023-04-06T01:46:30;6.38;;;4.00;;
68216;SDS011;55037;52.354;4.992;2023-04-06T01:48:58;10.10;;;4.63;;
68216;SDS011;55037;52.354;4.992;2023-04-06T01:51:37;8.73;;;4.32;;
68216;SDS011;55037;52.354;4.992;2023-04-06T01:54:08;7.18;;;4.07;;
68216;SDS011;55037;52.354;4.992;2023-04-06T01:57:07;6.17;;;3.43;;
68216;SDS011;55037;52.354;4.992;2023-04-06T01:59:45;7.43;;;4.38;;
68216;SDS011;55037;52.354;4.992;2023-04-06T02:02:20;7.40;;;4.75;;
68216;SDS011;55037;52.354;4.992;2023-04-06T02:04:57;8.38;;;4.80;;
68216;SDS011;55037;52.354;4.992;2023-04-06T02:07:25;5.35;;;3.35;;
68216;SDS011;55037;52.354;4.992;2023-04-06T02:09:53;7.73;;;4.33;;
68216;SDS011;55037;52.354;4.992;2023-04-06T02:12:28;7.20;;;4.05;;
68216;SDS011;55037;52.354;4.992;2023-04-06T02:14:55;9.25;;;4.15;;
68216;SDS011;55037;52.354;4.992;2023-04-06T02:17:23;8.55;;;4.80;;
68216;SDS011;55037;52.354;4.992;2023-04-06T02:19:50;9.00;;;4.93;;
68216;SDS011;55037;52.354;4.992;2023-04-06T02:22:17;10.17;;;5.00;;
68216;SDS011;55037;52.354;4.992;2023-04-06T02:24:44;5.78;;;3.75;;
68216;SDS011;55037;52.354;4.992;2023-04-06T02:27:16;9.30;;;4.63;;
68216;SDS011;55037;52.354;4.992;2023-04-06T02:29:46;6.60;;;4.00;;
68216;SDS011;55037;52.354;4.992;2023-04-06T02:32:17;9.10;;;4.35;;
68216;SDS011;55037;52.354;4.992;2023-04-06T02:34:45;16.40;;;4.13;;
68216;SDS011;55037;52.354;4.992;2023-04-06T02:37:14;8.20;;;3.45;;
68216;SDS011;55037;52.354;4.992;2023-04-06T02:39:41;8.43;;;4.80;;
68216;SDS011;55037;52.354;4.992;2023-04-06T02:42:08;9.82;;;4.18;;
68216;SDS011;55037;52.354;4.992;2023-04-06T02:44:36;8.02;;;4.90;;
68216;SDS011;55037;52.354;4.992;2023-04-06T02:47:03;7.30;;;4.10;;
68216;SDS011;55037;52.354;4.992;2023-04-06T02:49:30;9.18;;;4.30;;
68216;SDS011;55037;52.354;4.992;2023-04-06T02:51:59;11.00;;;5.00;;
68216;SDS011;55037;52.354;4.992;2023-04-06T02:54:30;6.43;;;4.03;;
68216;SDS011;55037;52.354;4.992;2023-04-06T02:56:59;7.00;;;4.30;;
68216;SDS011;55037;52.354;4.992;2023-04-06T02:59:35;8.37;;;4.20;;
68216;SDS011;55037;52.354;4.992;2023-04-06T03:02:12;6.85;;;4.35;;
68216;SDS011;55037;52.354;4.992;2023-04-06T03:04:39;7.82;;;4.55;;
68216;SDS011;55037;52.354;4.992;2023-04-06T03:07:16;9.00;;;5.25;;
68216;SDS011;55037;52.354;4.992;2023-04-06T03:09:44;9.68;;;4.90;;
68216;SDS011;55037;52.354;4.992;2023-04-06T03:12:11;6.53;;;3.47;;
68216;SDS011;55037;52.354;4.992;2023-04-06T03:14:57;6.63;;;3.25;;
68216;SDS011;55037;52.354;4.992;2023-04-06T03:17:25;7.72;;;4.50;;
68216;SDS011;55037;52.354;4.992;2023-04-06T03:19:55;7.72;;;4.55;;
68216;SDS011;55037;52.354;4.992;2023-04-06T03:22:23;5.88;;;4.00;;
68216;SDS011;55037;52.354;4.992;2023-04-06T03:24:50;12.07;;;5.87;;
68216;SDS011;55037;52.354;4.992;2023-04-06T03:27:18;8.98;;;5.25;;
68216;SDS011;55037;52.354;4.992;2023-04-06T03:29:46;6.40;;;4.30;;
68216;SDS011;55037;52.354;4.992;2023-04-06T03:32:19;8.18;;;4.20;;
68216;SDS011;55037;52.354;4.992;2023-04-06T03:34:46;7.88;;;5.00;;
68216;SDS011;55037;52.354;4.992;2023-04-06T03:37:13;11.00;;;5.10;;
68216;SDS011;55037;52.354;4.992;2023-04-06T03:39:46;9.30;;;4.40;;
68216;SDS011;55037;52.354;4.992;2023-04-06T03:42:19;7.43;;;4.72;;
68216;SDS011;55037;52.354;4.992;2023-04-06T03:44:53;7.68;;;3.67;;
68216;SDS011;55037;52.354;4.992;2023-04-06T03:47:20;9.63;;;5.20;;
68216;SDS011;55037;52.354;4.992;2023-04-06T03:49:48;4.20;;;2.50;;
68216;SDS011;55037;52.354;4.992;2023-04-06T03:52:16;10.93;;;6.40;;
68216;SDS011;55037;52.354;4.992;2023-04-06T03:54:43;5.60;;;3.58;;
68216;SDS011;55037;52.354;4.992;2023-04-06T03:57:10;6.35;;;3.85;;
68216;SDS011;55037;52.354;4.992;2023-04-06T03:59:37;6.88;;;4.60;;
68216;SDS011;55037;52.354;4.992;2023-04-06T04:02:05;14.40;;;5.40;;
68216;SDS011;55037;52.354;4.992;2023-04-06T04:04:32;5.78;;;3.88;;
68216;SDS011;55037;52.354;4.992;2023-04-06T04:07:01;9.18;;;4.60;;
68216;SDS011;55037;52.354;4.992;2023-04-06T04:09:29;11.05;;;7.03;;
68216;SDS011;55037;52.354;4.992;2023-04-06T04:11:56;11.00;;;6.90;;
68216;SDS011;55037;52.354;4.992;2023-04-06T04:14:23;5.57;;;3.50;;
68216;SDS011;55037;52.354;4.992;2023-04-06T04:16:52;7.43;;;4.47;;
68216;SDS011;55037;52.354;4.992;2023-04-06T04:19:19;6.15;;;3.88;;
68216;SDS011;55037;52.354;4.992;2023-04-06T04:21:46;12.27;;;6.28;;
68216;SDS011;55037;52.354;4.992;2023-04-06T04:24:18;8.48;;;5.00;;
68216;SDS011;55037;52.354;4.992;2023-04-06T04:26:45;8.93;;;5.30;;
68216;SDS011;55037;52.354;4.992;2023-04-06T04:29:13;11.23;;;5.32;;
68216;SDS011;55037;52.354;4.992;2023-04-06T04:31:42;9.25;;;5.32;;
68216;SDS011;55037;52.354;4.992;2023-04-06T04:34:15;13.23;;;6.93;;
68216;SDS011;55037;52.354;4.992;2023-04-06T04:36:42;11.95;;;7.32;;
68216;SDS011;55037;52.354;4.992;2023-04-06T04:39:15;14.17;;;6.73;;
68216;SDS011;55037;52.354;4.992;2023-04-06T04:41:47;11.60;;;7.03;;
68216;SDS011;55037;52.354;4.992;2023-04-06T04:44:14;11.55;;;6.18;;
68216;SDS011;55037;52.354;4.992;2023-04-06T04:46:42;11.45;;;6.25;;
68216;SDS011;55037;52.354;4.992;2023-04-06T04:49:10;7.13;;;4.55;;
68216;SDS011;55037;52.354;4.992;2023-04-06T04:51:39;13.53;;;5.13;;
68216;SDS011;55037;52.354;4.992;2023-04-06T04:54:22;12.07;;;6.20;;
68216;SDS011;55037;52.354;4.992;2023-04-06T04:56:50;12.30;;;6.50;;
68216;SDS011;55037;52.354;4.992;2023-04-06T04:59:38;16.58;;;7.07;;
68216;SDS011;55037;52.354;4.992;2023-04-06T05:02:14;11.30;;;4.45;;
68216;SDS011;55037;52.354;4.992;2023-04-06T05:04:51;11.87;;;5.90;;
68216;SDS011;55037;52.354;4.992;2023-04-06T05:07:23;12.40;;;6.95;;
68216;SDS011;55037;52.354;4.992;2023-04-06T05:09:52;17.13;;;7.68;;
68216;SDS011;55037;52.354;4.992;2023-04-06T05:12:23;14.15;;;7.53;;
68216;SDS011;55037;52.354;4.992;2023-04-06T05:15:00;15.15;;;7.95;;
68216;SDS011;55037;52.354;4.992;2023-04-06T05:17:28;12.43;;;6.67;;
68216;SDS011;55037;52.354;4.992;2023-04-06T05:19:55;17.80;;;7.68;;
68216;SDS011;55037;52.354;4.992;2023-04-06T05:22:24;8.52;;;5.38;;
68216;SDS011;55037;52.354;4.992;2023-04-06T05:25:02;17.15;;;7.05;;
68216;SDS011;55037;52.354;4.992;2023-04-06T05:27:31;15.13;;;6.57;;
68216;SDS011;55037;52.354;4.992;2023-04-06T05:30:02;12.20;;;6.10;;
68216;SDS011;55037;52.354;4.992;2023-04-06T05:32:35;12.05;;;6.10;;
68216;SDS011;55037;52.354;4.992;2023-04-06T05:35:02;12.02;;;5.95;;
68216;SDS011;55037;52.354;4.992;2023-04-06T05:37:30;9.98;;;6.20;;
68216;SDS011;55037;52.354;4.992;2023-04-06T05:39:58;13.73;;;6.82;;
68216;SDS011;55037;52.354;4.992;2023-04-06T05:42:26;20.27;;;8.20;;
68216;SDS011;55037;52.354;4.992;2023-04-06T05:44:57;14.75;;;7.80;;
68216;SDS011;55037;52.354;4.992;2023-04-06T05:47:25;9.85;;;5.32;;
68216;SDS011;55037;52.354;4.992;2023-04-06T05:50:02;16.38;;;8.45;;
68216;SDS011;55037;52.354;4.992;2023-04-06T05:52:33;8.73;;;5.60;;
68216;SDS011;55037;52.354;4.992;2023-04-06T05:55:00;11.60;;;6.53;;
68216;SDS011;55037;52.354;4.992;2023-04-06T05:57:28;14.73;;;7.55;;
68216;SDS011;55037;52.354;4.992;2023-04-06T05:59:56;17.15;;;7.60;;
68216;SDS011;55037;52.354;4.992;2023-04-06T06:02:27;14.23;;;7.55;;
68216;SDS011;55037;52.354;4.992;2023-04-06T06:04:57;12.38;;;7.43;;
68216;SDS011;55037;52.354;4.992;2023-04-06T06:07:25;12.90;;;6.70;;
68216;SDS011;55037;52.354;4.992;2023-04-06T06:09:58;17.63;;;8.32;;
68216;SDS011;55037;52.354;4.992;2023-04-06T06:12:30;11.73;;;6.43;;
68216;SDS011;55037;52.354;4.992;2023-04-06T06:14:58;11.77;;;6.30;;
68216;SDS011;55037;52.354;4.992;2023-04-06T06:17:28;17.50;;;9.18;;
68216;SDS011;55037;52.354;4.992;2023-04-06T06:19:55;17.30;;;7.57;;
68216;SDS011;55037;52.354;4.992;2023-04-06T06:22:23;14.98;;;7.78;;
68216;SDS011;55037;52.354;4.992;2023-04-06T06:24:50;11.68;;;6.22;;
68216;SDS011;55037;52.354;4.992;2023-04-06T06:27:19;11.73;;;5.63;;
68216;SDS011;55037;52.354;4.992;2023-04-06T06:29:47;14.57;;;9.18;;
68216;SDS011;55037;52.354;4.992;2023-04-06T06:32:14;13.77;;;6.93;;
68216;SDS011;55037;52.354;4.992;2023-04-06T06:34:43;15.98;;;8.07;;
68216;SDS011;55037;52.354;4.992;2023-04-06T06:37:10;19.80;;;9.55;;
68216;SDS011;55037;52.354;4.992;2023-04-06T06:39:38;11.35;;;6.28;;
68216;SDS011;55037;52.354;4.992;2023-04-06T06:42:05;18.85;;;9.55;;
68216;SDS011;55037;52.354;4.992;2023-04-06T06:44:51;13.00;;;7.50;;
68216;SDS011;55037;52.354;4.992;2023-04-06T06:47:19;18.80;;;9.23;;
68216;SDS011;55037;52.354;4.992;2023-04-06T06:49:46;14.40;;;6.88;;
68216;SDS011;55037;52.354;4.992;2023-04-06T06:52:13;15.70;;;8.23;;
68216;SDS011;55037;52.354;4.992;2023-04-06T06:54:41;16.25;;;7.82;;
68216;SDS011;55037;52.354;4.992;2023-04-06T06:57:08;18.53;;;8.37;;
68216;SDS011;55037;52.354;4.992;2023-04-06T06:59:36;17.15;;;8.95;;
68216;SDS011;55037;52.354;4.992;2023-04-06T07:02:04;16.52;;;8.95;;
68216;SDS011;55037;52.354;4.992;2023-04-06T07:04:31;10.48;;;6.78;;
68216;SDS011;55037;52.354;4.992;2023-04-06T07:06:58;20.30;;;11.18;;
68216;SDS011;55037;52.354;4.992;2023-04-06T07:09:26;13.63;;;7.87;;
68216;SDS011;55037;52.354;4.992;2023-04-06T07:11:53;20.65;;;9.02;;
68216;SDS011;55037;52.354;4.992;2023-04-06T07:14:20;18.55;;;8.80;;
68216;SDS011;55037;52.354;4.992;2023-04-06T07:16:48;14.38;;;6.80;;
68216;SDS011;55037;52.354;4.992;2023-04-06T07:19:16;8.55;;;5.75;;
68216;SDS011;55037;52.354;4.992;2023-04-06T07:21:44;20.90;;;9.37;;
68216;SDS011;55037;52.354;4.992;2023-04-06T07:24:11;21.95;;;9.75;;
68216;SDS011;55037;52.354;4.992;2023-04-06T07:26:38;21.52;;;10.88;;
68216;SDS011;55037;52.354;4.992;2023-04-06T07:29:06;18.65;;;8.85;;
68216;SDS011;55037;52.354;4.992;2023-04-06T07:31:33;17.17;;;9.13;;
68216;SDS011;55037;52.354;4.992;2023-04-06T07:34:02;17.37;;;8.83;;
68216;SDS011;55037;52.354;4.992;2023-04-06T07:36:30;19.33;;;10.13;;
68216;SDS011;55037;52.354;4.992;2023-04-06T07:38:58;21.15;;;10.80;;
68216;SDS011;55037;52.354;4.992;2023-04-06T07:41:25;16.45;;;9.23;;
68216;SDS011;55037;52.354;4.992;2023-04-06T07:43:53;15.63;;;7.35;;
68216;SDS011;55037;52.354;4.992;2023-04-06T07:46:20;21.50;;;9.87;;
68216;SDS011;55037;52.354;4.992;2023-04-06T07:48:48;14.52;;;8.05;;
68216;SDS011;55037;52.354;4.992;2023-04-06T07:51:16;20.77;;;9.95;;
68216;SDS011;55037;52.354;4.992;2023-04-06T07:53:45;18.02;;;10.38;;
68216;SDS011;55037;52.354;4.992;2023-04-06T07:56:12;16.20;;;9.23;;
68216;SDS011;55037;52.354;4.992;2023-04-06T07:58:39;16.27;;;8.70;;
68216;SDS011;55037;52.354;4.992;2023-04-06T08:01:09;14.88;;;8.23;;
68216;SDS011;55037;52.354;4.992;2023-04-06T08:03:37;12.60;;;7.03;;
68216;SDS011;55037;52.354;4.992;2023-04-06T08:06:04;15.65;;;8.48;;
68216;SDS011;55037;52.354;4.992;2023-04-06T08:08:32;18.85;;;10.95;;
68216;SDS011;55037;52.354;4.992;2023-04-06T08:10:59;18.33;;;8.50;;
68216;SDS011;55037;52.354;4.992;2023-04-06T08:13:28;22.05;;;11.38;;
68216;SDS011;55037;52.354;4.992;2023-04-06T08:15:55;16.50;;;8.63;;
68216;SDS011;55037;52.354;4.992;2023-04-06T08:18:23;16.00;;;8.80;;
68216;SDS011;55037;52.354;4.992;2023-04-06T08:20:51;20.23;;;10.00;;
68216;SDS011;55037;52.354;4.992;2023-04-06T08:23:18;17.90;;;10.30;;
68216;SDS011;55037;52.354;4.992;2023-04-06T08:25:45;19.40;;;9.68;;
68216;SDS011;55037;52.354;4.992;2023-04-06T08:28:12;16.35;;;8.35;;
68216;SDS011;55037;52.354;4.992;2023-04-06T08:30:40;15.82;;;8.50;;
68216;SDS011;55037;52.354;4.992;2023-04-06T08:33:09;17.90;;;8.98;;
68216;SDS011;55037;52.354;4.992;2023-04-06T08:35:36;16.73;;;9.60;;
68216;SDS011;55037;52.354;4.992;2023-04-06T08:38:04;18.27;;;10.13;;
68216;SDS011;55037;52.354;4.992;2023-04-06T08:40:38;14.18;;;8.00;;
68216;SDS011;55037;52.354;4.992;2023-04-06T08:43:06;18.17;;;10.38;;
68216;SDS011;55037;52.354;4.992;2023-04-06T08:45:40;15.20;;;9.40;;
68216;SDS011;55037;52.354;4.992;2023-04-06T08:48:08;21.73;;;10.10;;
68216;SDS011;55037;52.354;4.992;2023-04-06T08:50:38;20.88;;;11.52;;
68216;SDS011;55037;52.354;4.992;2023-04-06T08:53:05;14.48;;;7.75;;
68216;SDS011;55037;52.354;4.992;2023-04-06T08:55:34;16.25;;;9.25;;
68216;SDS011;55037;52.354;4.992;2023-04-06T08:58:02;22.65;;;12.13;;
68216;SDS011;55037;52.354;4.992;2023-04-06T09:00:33;24.00;;;12.43;;
68216;SDS011;55037;52.354;4.992;2023-04-06T09:03:04;16.52;;;7.70;;
68216;SDS011;55037;52.354;4.992;2023-04-06T09:05:33;24.00;;;13.18;;
68216;SDS011;55037;52.354;4.992;2023-04-06T09:08:01;23.92;;;12.18;;
68216;SDS011;55037;52.354;4.992;2023-04-06T09:10:29;21.00;;;12.00;;
68216;SDS011;55037;52.354;4.992;2023-04-06T09:13:03;18.43;;;10.63;;
68216;SDS011;55037;52.354;4.992;2023-04-06T09:15:34;12.52;;;7.47;;
68216;SDS011;55037;52.354;4.992;2023-04-06T09:18:02;19.15;;;9.77;;
68216;SDS011;55037;52.354;4.992;2023-04-06T09:20:29;20.85;;;12.30;;
68216;SDS011;55037;52.354;4.992;2023-04-06T09:22:56;25.00;;;13.40;;
68216;SDS011;55037;52.354;4.992;2023-04-06T09:25:24;16.50;;;9.33;;
68216;SDS011;55037;52.354;4.992;2023-04-06T09:27:58;23.85;;;11.95;;
68216;SDS011;55037;52.354;4.992;2023-04-06T09:30:30;13.63;;;8.60;;
68216;SDS011;55037;52.354;4.992;2023-04-06T09:32:57;22.58;;;12.45;;
68216;SDS011;55037;52.354;4.992;2023-04-06T09:35:26;20.85;;;11.73;;
68216;SDS011;55037;52.354;4.992;2023-04-06T09:37:54;15.97;;;9.03;;
68216;SDS011;55037;52.354;4.992;2023-04-06T09:40:22;19.08;;;9.82;;
68216;SDS011;55037;52.354;4.992;2023-04-06T09:42:49;16.00;;;9.48;;
68216;SDS011;55037;52.354;4.992;2023-04-06T09:45:19;16.63;;;9.82;;
68216;SDS011;55037;52.354;4.992;2023-04-06T09:47:47;16.80;;;11.02;;
68216;SDS011;55037;52.354;4.992;2023-04-06T09:50:19;27.73;;;12.63;;
68216;SDS011;55037;52.354;4.992;2023-04-06T09:52:48;21.65;;;11.63;;
68216;SDS011;55037;52.354;4.992;2023-04-06T09:55:19;23.02;;;12.18;;
68216;SDS011;55037;52.354;4.992;2023-04-06T09:57:58;18.67;;;11.05;;
68216;SDS011;55037;52.354;4.992;2023-04-06T10:00:31;21.92;;;11.90;;
68216;SDS011;55037;52.354;4.992;2023-04-06T10:03:07;22.00;;;12.93;;
68216;SDS011;55037;52.354;4.992;2023-04-06T10:05:49;24.35;;;12.55;;
68216;SDS011;55037;52.354;4.992;2023-04-06T10:08:21;19.85;;;11.20;;
68216;SDS011;55037;52.354;4.992;2023-04-06T10:10:57;18.40;;;11.13;;
68216;SDS011;55037;52.354;4.992;2023-04-06T10:13:25;13.38;;;7.75;;
68216;SDS011;55037;52.354;4.992;2023-04-06T10:15:54;17.67;;;9.13;;
68216;SDS011;55037;52.354;4.992;2023-04-06T10:18:21;19.85;;;11.73;;
68216;SDS011;55037;52.354;4.992;2023-04-06T10:20:51;20.10;;;10.20;;
68216;SDS011;55037;52.354;4.992;2023-04-06T10:23:35;21.33;;;10.25;;
68216;SDS011;55037;52.354;4.992;2023-04-06T10:26:12;11.40;;;6.80;;
68216;SDS011;55037;52.354;4.992;2023-04-06T10:28:41;13.17;;;7.90;;
68216;SDS011;55037;52.354;4.992;2023-04-06T10:31:09;18.90;;;9.70;;
68216;SDS011;55037;52.354;4.992;2023-04-06T10:33:36;16.20;;;9.07;;
68216;SDS011;55037;52.354;4.992;2023-04-06T10:36:13;17.40;;;7.90;;
68216;SDS011;55037;52.354;4.992;2023-04-06T10:38:53;24.23;;;10.45;;
68216;SDS011;55037;52.354;4.992;2023-04-06T10:41:34;13.93;;;6.33;;
68216;SDS011;55037;52.354;4.992;2023-04-06T10:44:03;17.90;;;9.30;;
68216;SDS011;55037;52.354;4.992;2023-04-06T10:46:31;14.00;;;8.73;;
68216;SDS011;55037;52.354;4.992;2023-04-06T10:49:11;14.05;;;8.13;;
68216;SDS011;55037;52.354;4.992;2023-04-06T10:51:39;11.57;;;7.80;;
68216;SDS011;55037;52.354;4.992;2023-04-06T10:54:06;11.33;;;6.47;;
68216;SDS011;55037;52.354;4.992;2023-04-06T10:56:36;15.82;;;7.20;;
68216;SDS011;55037;52.354;4.992;2023-04-06T10:59:05;15.43;;;8.30;;
68216;SDS011;55037;52.354;4.992;2023-04-06T11:01:34;14.95;;;8.82;;
68216;SDS011;55037;52.354;4.992;2023-04-06T11:04:01;13.93;;;8.18;;
68216;SDS011;55037;52.354;4.992;2023-04-06T11:06:29;16.57;;;8.97;;
68216;SDS011;55037;52.354;4.992;2023-04-06T11:08:58;15.45;;;8.95;;
68216;SDS011;55037;52.354;4.992;2023-04-06T11:11:26;13.00;;;7.85;;
68216;SDS011;55037;52.354;4.992;2023-04-06T11:13:54;12.63;;;8.57;;
68216;SDS011;55037;52.354;4.992;2023-04-06T11:16:33;7.90;;;6.22;;
68216;SDS011;55037;52.354;4.992;2023-04-06T11:19:01;11.53;;;7.97;;
68216;SDS011;55037;52.354;4.992;2023-04-06T11:21:36;12.55;;;6.90;;
68216;SDS011;55037;52.354;4.992;2023-04-06T11:26:46;9.48;;;5.60;;
68216;SDS011;55037;52.354;4.992;2023-04-06T11:29:20;8.65;;;5.35;;
68216;SDS011;55037;52.354;4.992;2023-04-06T11:31:50;10.10;;;7.27;;
68216;SDS011;55037;52.354;4.992;2023-04-06T11:34:20;9.63;;;5.03;;
68216;SDS011;55037;52.354;4.992;2023-04-06T11:36:49;7.70;;;5.13;;
68216;SDS011;55037;52.354;4.992;2023-04-06T11:39:27;8.02;;;5.13;;
68216;SDS011;55037;52.354;4.992;2023-04-06T11:41:58;8.38;;;5.30;;
68216;SDS011;55037;52.354;4.992;2023-04-06T11:44:35;9.50;;;5.73;;
68216;SDS011;55037;52.354;4.992;2023-04-06T11:47:10;7.90;;;4.88;;
68216;SDS011;55037;52.354;4.992;2023-04-06T11:49:38;9.32;;;6.40;;
68216;SDS011;55037;52.354;4.992;2023-04-06T11:52:20;8.63;;;4.97;;
68216;SDS011;55037;52.354;4.992;2023-04-06T11:54:50;9.73;;;5.65;;
68216;SDS011;55037;52.354;4.992;2023-04-06T11:57:19;9.93;;;4.67;;
68216;SDS011;55037;52.354;4.992;2023-04-06T11:59:47;8.60;;;5.40;;
68216;SDS011;55037;52.354;4.992;2023-04-06T12:02:14;9.00;;;5.57;;
68216;SDS011;55037;52.354;4.992;2023-04-06T12:04:42;7.38;;;4.95;;
68216;SDS011;55037;52.354;4.992;2023-04-06T12:07:09;9.20;;;5.93;;
68216;SDS011;55037;52.354;4.992;2023-04-06T12:09:36;7.53;;;4.43;;
68216;SDS011;55037;52.354;4.992;2023-04-06T12:12:05;13.82;;;6.90;;
68216;SDS011;55037;52.354;4.992;2023-04-06T12:14:32;9.00;;;6.20;;
68216;SDS011;55037;52.354;4.992;2023-04-06T12:16:59;8.20;;;4.97;;
68216;SDS011;55037;52.354;4.992;2023-04-06T12:19:27;10.27;;;7.20;;
68216;SDS011;55037;52.354;4.992;2023-04-06T12:21:56;9.97;;;5.10;;
68216;SDS011;55037;52.354;4.992;2023-04-06T12:24:24;7.03;;;4.85;;
68216;SDS011;55037;52.354;4.992;2023-04-06T12:26:51;8.52;;;5.43;;
68216;SDS011;55037;52.354;4.992;2023-04-06T12:29:28;8.82;;;5.43;;
68216;SDS011;55037;52.354;4.992;2023-04-06T12:31:56;9.40;;;5.88;;
68216;SDS011;55037;52.354;4.992;2023-04-06T12:34:23;7.50;;;4.20;;
68216;SDS011;55037;52.354;4.992;2023-04-06T12:36:50;10.73;;;5.13;;
68216;SDS011;55037;52.354;4.992;2023-04-06T12:39:18;9.32;;;6.07;;
68216;SDS011;55037;52.354;4.992;2023-04-06T12:41:47;8.45;;;6.38;;
68216;SDS011;55037;52.354;4.992;2023-04-06T12:44:14;7.85;;;5.13;;
68216;SDS011;55037;52.354;4.992;2023-04-06T12:46:41;10.60;;;6.60;;
68216;SDS011;55037;52.354;4.992;2023-04-06T12:49:10;9.68;;;6.15;;
68216;SDS011;55037;52.354;4.992;2023-04-06T12:51:37;5.60;;;4.15;;
68216;SDS011;55037;52.354;4.992;2023-04-06T12:54:04;11.32;;;8.13;;
68216;SDS011;55037;52.354;4.992;2023-04-06T12:56:33;7.40;;;4.97;;
68216;SDS011;55037;52.354;4.992;2023-04-06T12:59:00;6.73;;;4.33;;
68216;SDS011;55037;52.354;4.992;2023-04-06T13:01:27;10.02;;;6.07;;
68216;SDS011;55037;52.354;4.992;2023-04-06T13:03:56;7.82;;;5.30;;
68216;SDS011;55037;52.354;4.992;2023-04-06T13:06:24;7.72;;;5.20;;
68216;SDS011;55037;52.354;4.992;2023-04-06T13:08:54;12.40;;;7.00;;
68216;SDS011;55037;52.354;4.992;2023-04-06T13:11:22;11.83;;;6.17;;
68216;SDS011;55037;52.354;4.992;2023-04-06T13:13:53;7.82;;;5.70;;
68216;SDS011;55037;52.354;4.992;2023-04-06T13:16:21;13.05;;;7.75;;
68216;SDS011;55037;52.354;4.992;2023-04-06T13:18:48;9.05;;;5.80;;
68216;SDS011;55037;52.354;4.992;2023-04-06T13:21:16;11.32;;;7.03;;
68216;SDS011;55037;52.354;4.992;2023-04-06T13:23:44;9.10;;;6.10;;
68216;SDS011;55037;52.354;4.992;2023-04-06T13:26:11;8.35;;;5.30;;
68216;SDS011;55037;52.354;4.992;2023-04-06T13:28:40;10.05;;;5.90;;
68216;SDS011;55037;52.354;4.992;2023-04-06T13:31:08;12.68;;;7.70;;
68216;SDS011;55037;52.354;4.992;2023-04-06T13:33:38;9.23;;;6.15;;
68216;SDS011;55037;52.354;4.992;2023-04-06T13:36:07;9.90;;;6.07;;
68216;SDS011;55037;52.354;4.992;2023-04-06T13:38:35;8.95;;;5.72;;
68216;SDS011;55037;52.354;4.992;2023-04-06T13:41:05;12.27;;;7.00;;
68216;SDS011;55037;52.354;4.992;2023-04-06T13:43:32;10.65;;;7.40;;
68216;SDS011;55037;52.354;4.992;2023-04-06T13:46:00;10.68;;;6.35;;
68216;SDS011;55037;52.354;4.992;2023-04-06T13:48:28;13.47;;;8.00;;
68216;SDS011;55037;52.354;4.992;2023-04-06T13:50:55;9.82;;;5.90;;
68216;SDS011;55037;52.354;4.992;2023-04-06T13:53:22;11.70;;;6.55;;
68216;SDS011;55037;52.354;4.992;2023-04-06T13:55:54;9.85;;;6.05;;
68216;SDS011;55037;52.354;4.992;2023-04-06T13:58:22;12.65;;;8.15;;
68216;SDS011;55037;52.354;4.992;2023-04-06T14:00:50;12.57;;;7.60;;
68216;SDS011;55037;52.354;4.992;2023-04-06T14:03:18;12.20;;;6.65;;
68216;SDS011;55037;52.354;4.992;2023-04-06T14:05:45;12.18;;;7.75;;
68216;SDS011;55037;52.354;4.992;2023-04-06T14:08:13;17.95;;;9.63;;
68216;SDS011;55037;52.354;4.992;2023-04-06T14:10:40;8.35;;;5.80;;
68216;SDS011;55037;52.354;4.992;2023-04-06T14:13:09;13.00;;;8.03;;
68216;SDS011;55037;52.354;4.992;2023-04-06T14:15:37;9.85;;;6.18;;
68216;SDS011;55037;52.354;4.992;2023-04-06T14:18:04;8.32;;;6.50;;
68216;SDS011;55037;52.354;4.992;2023-04-06T14:20:32;10.32;;;6.45;;
68216;SDS011;55037;52.354;4.992;2023-04-06T14:23:00;12.75;;;8.10;;
68216;SDS011;55037;52.354;4.992;2023-04-06T14:25:28;12.37;;;7.37;;
68216;SDS011;55037;52.354;4.992;2023-04-06T14:27:58;11.95;;;7.78;;
68216;SDS011;55037;52.354;4.992;2023-04-06T14:30:29;13.10;;;8.95;;
68216;SDS011;55037;52.354;4.992;2023-04-06T14:32:57;12.05;;;8.18;;
68216;SDS011;55037;52.354;4.992;2023-04-06T14:35:25;12.82;;;8.55;;
68216;SDS011;55037;52.354;4.992;2023-04-06T14:37:55;13.47;;;8.50;;
68216;SDS011;55037;52.354;4.992;2023-04-06T14:40:26;11.52;;;7.78;;
68216;SDS011;55037;52.354;4.992;2023-04-06T14:42:53;10.32;;;6.50;;
68216;SDS011;55037;52.354;4.992;2023-04-06T14:45:22;2.85;;;2.17;;
68216;SDS011;55037;52.354;4.992;2023-04-06T14:47:49;1.58;;;0.85;;
68216;SDS011;55037;52.354;4.992;2023-04-06T14:50:17;1.03;;;0.70;;
68216;SDS011;55037;52.354;4.992;2023-04-06T14:52:44;1.10;;;0.70;;
68216;SDS011;55037;52.354;4.992;2023-04-06T14:55:13;1.15;;;0.80;;